Bookmark and Share
Track history (hours):
 

Royal Prince

More information available from US FCC via Universal Licensing System and Coast Guard Vessel Documentation Center.

Last reported at 2014-Apr-19 03:06 UTC. Time now 2014-Apr-19 17:13 UTC.
Position N 37°49' W 122°25'.

Length 28 m; draft 2.3 m.

Type: Passenger vessel. MMSI: 366975760.

NotesDate/timePositionNaut miles runAvg speedWind from/ knotsBaromVisibWave heightAir tempDewpointWater temp
2014-Apr-19 03:06N 37°49' W 122°25'3 5.3
2014-Apr-19 02:33N 37°49' W 122°28'3 3.1
2014-Apr-19 01:33N 37°51' W 122°25'2 2.4
2014-Apr-19 00:33N 37°49' W 122°25'0 0.0
2014-Apr-18 23:33N 37°49' W 122°25'2 2.0
2014-Apr-18 22:33N 37°49' W 122°27'2 2.2
2014-Apr-18 21:33N 37°49' W 122°24'0 0.4
2014-Apr-18 20:33N 37°49' W 122°25'2 1.8
2014-Apr-18 19:33N 37°49' W 122°27'2 1.9
2014-Apr-18 18:33N 37°49' W 122°25'1 0.5
2014-Apr-18 17:33N 37°49' W 122°25'0 0.0
2014-Apr-18 03:07N 37°49' W 122°25'3 5.6
2014-Apr-18 02:33N 37°49' W 122°29'3 3.4
2014-Apr-18 01:33N 37°51' W 122°25'3 2.5
2014-Apr-18 00:34N 37°49' W 122°25'0 0.0
2014-Apr-17 23:34N 37°49' W 122°25'2 1.9
2014-Apr-17 22:34N 37°50' W 122°27'1 1.4
2014-Apr-17 21:33N 37°50' W 122°25'1 1.1
2014-Apr-17 20:34N 37°49' W 122°25'3 2.5
2014-Apr-17 19:33N 37°49' W 122°28'3 2.5
2014-Apr-17 18:34N 37°49' W 122°25'1 0.8
2014-Apr-17 17:34N 37°49' W 122°25'0 0.0
2014-Apr-17 03:08N 37°49' W 122°25'3 5.3
2014-Apr-17 02:33N 37°49' W 122°29'3 3.0
2014-Apr-17 01:33N 37°51' W 122°25'2 2.1
2014-Apr-17 00:33N 37°49' W 122°25'0 0.0
2014-Apr-16 23:33N 37°49' W 122°25'2 1.9
2014-Apr-16 22:33N 37°49' W 122°27'2 2.0
2014-Apr-16 21:33N 37°49' W 122°25'0 0.2
2014-Apr-16 20:33N 37°49' W 122°25'2 2.1
2014-Apr-16 19:33N 37°49' W 122°27'2 2.0
2014-Apr-16 18:34N 37°49' W 122°25'1 0.1
2014-Apr-16 03:09N 37°49' W 122°25'3 5.1
2014-Apr-16 02:33N 37°50' W 122°28'3 3.0
2014-Apr-16 01:33N 37°51' W 122°25'2 2.2
2014-Apr-16 00:33N 37°49' W 122°25'0 0.0
2014-Apr-15 23:33N 37°49' W 122°25'2 1.7
2014-Apr-15 22:33N 37°49' W 122°27'2 1.9
2014-Apr-15 21:33N 37°49' W 122°24'0 0.4
2014-Apr-15 20:33N 37°49' W 122°25'2 2.1
2014-Apr-15 19:33N 37°50' W 122°27'2 1.6
2014-Apr-15 18:33N 37°49' W 122°25'1 0.9
2014-Apr-15 17:33N 37°49' W 122°25'3 0.2
2014-Apr-15 01:34N 37°49' W 122°29'4 4.1
2014-Apr-15 00:34N 37°52' W 122°25'3 3.4
2014-Apr-14 23:34N 37°49' W 122°25'0 0.0
2014-Apr-14 22:34N 37°49' W 122°25'2 2.1
2014-Apr-14 21:34N 37°49' W 122°27'2 2.3
2014-Apr-14 20:34N 37°49' W 122°25'0 0.3
2014-Apr-14 19:34N 37°49' W 122°25'2 2.0
2014-Apr-14 18:34N 37°50' W 122°27'2 1.9
2014-Apr-14 17:34N 37°49' W 122°25'3 0.1
2014-Apr-13 22:33N 37°49' W 122°28'2 2.4
2014-Apr-13 21:33N 37°49' W 122°25'1 0.9
2014-Apr-13 20:34N 37°49' W 122°25'3 3.0
2014-Apr-13 19:33N 37°49' W 122°29'3 2.7
2014-Apr-13 18:34N 37°50' W 122°25'1 1.1
2014-Apr-13 17:33N 37°49' W 122°25'0 0.0
2014-Apr-13 03:07N 37°49' W 122°25'3 5.3
2014-Apr-13 02:33N 37°49' W 122°29'3 3.1
2014-Apr-13 01:33N 37°51' W 122°25'2 2.3
2014-Apr-13 00:33N 37°49' W 122°25'0 0.0
2014-Apr-12 23:33N 37°49' W 122°25'3 2.7
2014-Apr-12 22:33N 37°49' W 122°28'2 2.4
2014-Apr-12 21:33N 37°50' W 122°25'1 1.2
2014-Apr-12 20:33N 37°49' W 122°25'2 2.0
2014-Apr-12 19:33N 37°49' W 122°27'2 1.8
2014-Apr-12 18:33N 37°50' W 122°25'1 1.1
2014-Apr-12 17:33N 37°49' W 122°25'0 0.0
2014-Apr-12 16:33N 37°49' W 122°25'0 0.0
2014-Apr-12 03:06N 37°49' W 122°25'3 5.5
2014-Apr-12 02:32N 37°49' W 122°29'3 3.4
2014-Apr-12 01:33N 37°51' W 122°25'2 2.4
2014-Apr-12 00:33N 37°49' W 122°25'0 0.0
2014-Apr-11 23:33N 37°49' W 122°25'2 1.7
2014-Apr-11 22:33N 37°49' W 122°27'2 1.6
2014-Apr-11 21:33N 37°49' W 122°25'0 0.3
2014-Apr-11 20:33N 37°49' W 122°25'2 2.3
2014-Apr-11 19:33N 37°49' W 122°28'2 2.4
2014-Apr-11 18:33N 37°49' W 122°25'0 0.4
2014-Apr-11 17:33N 37°49' W 122°25'0 0.0
2014-Apr-11 03:06N 37°49' W 122°25'3 5.1
2014-Apr-11 02:33N 37°50' W 122°28'2 2.4
2014-Apr-11 01:33N 37°50' W 122°25'2 1.8
2014-Apr-11 00:33N 37°49' W 122°25'0 0.0
2014-Apr-10 23:33N 37°49' W 122°25'2 2.4
2014-Apr-10 22:33N 37°49' W 122°28'3 2.5
2014-Apr-10 21:33N 37°49' W 122°25'1 0.7
2014-Apr-10 20:33N 37°49' W 122°25'2 2.1
2014-Apr-10 19:33N 37°50' W 122°27'2 1.8
2014-Apr-10 18:33N 37°49' W 122°25'1 0.8
2014-Apr-10 17:33N 37°49' W 122°25'0 0.0
2014-Apr-10 03:07N 37°49' W 122°25'3 5.2
2014-Apr-10 02:33N 37°50' W 122°28'2 2.3
2014-Apr-10 01:33N 37°50' W 122°25'2 1.6
2014-Apr-10 00:33N 37°49' W 122°25'0 0.0
2014-Apr-09 23:33N 37°49' W 122°25'2 1.8
2014-Apr-09 22:33N 37°49' W 122°27'2 1.6
2014-Apr-09 21:33N 37°49' W 122°25'0 0.2
2014-Apr-09 20:33N 37°49' W 122°25'2 2.1
2014-Apr-09 19:33N 37°50' W 122°27'2 1.6
2014-Apr-09 18:33N 37°50' W 122°25'1 1.1
2014-Apr-09 17:33N 37°49' W 122°25'0 0.0
2014-Apr-09 03:09N 37°49' W 122°25'  

Dump ship's entire track history

sailing weather and tide predictions

Royal Prince — WCX8037 — position and weather